createdAt,value
2019-02-15T00:01:55.858Z,83.70
2019-02-15T00:05:00.943Z,83.70
2019-02-15T00:08:06.099Z,83.70
2019-02-15T00:11:10.497Z,83.50
2019-02-15T00:14:14.864Z,83.60
2019-02-15T00:17:41.360Z,83.40
2019-02-15T00:20:49.647Z,83.30
2019-02-15T00:23:54.063Z,83.30
2019-02-15T00:26:58.495Z,83.10
2019-02-15T00:30:04.479Z,83.10
2019-02-15T00:33:08.805Z,83.10
2019-02-15T00:36:13.168Z,83.10
2019-02-15T00:39:17.475Z,83.40
2019-02-15T00:42:21.903Z,83.40
2019-02-15T00:45:29.303Z,83.50
2019-02-15T00:48:33.698Z,83.70
2019-02-15T00:51:52.489Z,83.80
2019-02-15T00:55:16.057Z,84.00
2019-02-15T00:58:39.284Z,84.00
2019-02-15T01:01:54.334Z,84.20
2019-02-15T01:05:20.372Z,84.30
2019-02-15T01:08:32.821Z,84.40
2019-02-15T01:11:47.737Z,84.50
2019-02-15T01:15:00.824Z,84.60
2019-02-15T01:18:05.168Z,84.70
2019-02-15T01:21:09.460Z,84.60
2019-02-15T01:24:13.754Z,84.30
2019-02-15T01:27:36.009Z,84.40
2019-02-15T01:30:58.221Z,84.50
2019-02-15T01:34:13.351Z,84.50
2019-02-15T01:37:21.612Z,84.80
2019-02-15T01:40:50.916Z,84.60
2019-02-15T01:44:09.512Z,84.60
2019-02-15T01:47:17.643Z,84.40
2019-02-15T01:50:21.924Z,84.40
2019-02-15T01:53:26.240Z,84.50
2019-02-15T01:56:30.585Z,84.50
2019-02-15T01:59:35.165Z,84.50
2019-02-15T02:02:39.511Z,84.50
2019-02-15T02:05:43.820Z,84.30
2019-02-15T02:08:48.095Z,84.40
2019-02-15T02:11:52.467Z,84.20
2019-02-15T02:14:56.733Z,84.30
2019-02-15T02:18:01.099Z,84.20
2019-02-15T02:21:05.395Z,84.30
2019-02-15T02:24:09.756Z,84.40
2019-02-15T02:27:14.034Z,84.40
2019-02-15T02:30:18.343Z,84.40
2019-02-15T02:33:22.690Z,84.30
2019-02-15T02:36:49.810Z,84.40
2019-02-15T02:39:54.085Z,84.40
2019-02-15T02:42:58.389Z,84.60
2019-02-15T02:46:02.658Z,84.60
2019-02-15T02:49:06.981Z,84.70
2019-02-15T02:52:11.362Z,84.60
2019-02-15T02:55:15.750Z,84.70
2019-02-15T02:58:20.028Z,84.80
2019-02-15T03:01:24.433Z,84.90
2019-02-15T03:04:28.731Z,85.00
2019-02-15T03:07:33.041Z,84.90
2019-02-15T03:10:37.384Z,85.00
2019-02-15T03:13:41.753Z,85.00
2019-02-15T03:16:46.032Z,84.60
2019-02-15T03:19:50.340Z,84.60
2019-02-15T03:22:54.628Z,84.50
2019-02-15T03:25:58.999Z,84.50
2019-02-15T03:29:03.347Z,84.50
2019-02-15T03:32:07.860Z,84.40
2019-02-15T03:35:12.216Z,84.40
2019-02-15T03:38:25.952Z,84.40
2019-02-15T03:41:32.585Z,84.40
2019-02-15T03:44:36.890Z,84.30
2019-02-15T03:47:41.240Z,84.20
2019-02-15T03:50:45.743Z,84.10
2019-02-15T03:53:50.100Z,84.40
2019-02-15T03:56:54.380Z,84.30
2019-02-15T03:59:58.758Z,84.60
2019-02-15T04:03:03.173Z,84.70
2019-02-15T04:06:07.472Z,84.80
2019-02-15T04:09:11.791Z,85.00
2019-02-15T04:12:16.141Z,85.00
2019-02-15T04:15:20.541Z,85.00
2019-02-15T04:18:24.909Z,85.20
2019-02-15T04:21:29.276Z,85.00
2019-02-15T04:24:33.629Z,84.60
2019-02-15T04:27:37.988Z,85.00
2019-02-15T04:30:42.352Z,85.00
2019-02-15T04:33:46.668Z,85.00
2019-02-15T04:36:51.024Z,85.00
2019-02-15T04:39:55.327Z,85.00
2019-02-15T04:42:59.669Z,85.00
2019-02-15T04:46:03.987Z,85.00
2019-02-15T04:49:08.324Z,84.90
2019-02-15T04:52:12.608Z,84.80
2019-02-15T04:55:16.880Z,84.70
2019-02-15T04:58:21.254Z,84.70
2019-02-15T05:01:25.524Z,84.60
2019-02-15T05:04:30.014Z,84.50
2019-02-15T05:07:34.359Z,84.50
2019-02-15T05:10:38.661Z,84.30
2019-02-15T05:13:43.030Z,84.20
2019-02-15T05:16:47.401Z,84.30
2019-02-15T05:19:51.669Z,84.20
2019-02-15T05:22:55.957Z,84.10
2019-02-15T05:26:00.239Z,84.00
2019-02-15T05:29:04.623Z,84.20
2019-02-15T05:32:08.893Z,84.30
2019-02-15T05:35:13.442Z,84.30
2019-02-15T05:38:17.716Z,85.10
2019-02-15T05:41:22.088Z,83.50
2019-02-15T05:44:26.363Z,84.20
2019-02-15T05:47:30.687Z,84.30
2019-02-15T05:50:35.041Z,84.40
2019-02-15T05:53:39.347Z,84.50
2019-02-15T05:56:43.676Z,84.60
2019-02-15T05:59:48.002Z,84.60
2019-02-15T06:02:52.360Z,84.70
2019-02-15T06:05:56.736Z,84.70
2019-02-15T06:09:01.079Z,84.60
2019-02-15T06:12:05.449Z,84.60
2019-02-15T06:15:15.136Z,84.60
2019-02-15T06:18:15.767Z,84.60
2019-02-15T06:21:20.131Z,84.70
2019-02-15T06:24:24.585Z,84.80
2019-02-15T06:27:28.971Z,84.70
2019-02-15T06:30:33.350Z,84.60
2019-02-15T06:33:37.740Z,84.60
2019-02-15T06:36:42.310Z,84.40
2019-02-15T06:39:46.649Z,84.30
2019-02-15T06:42:51.046Z,84.30
2019-02-15T06:45:55.404Z,84.20
2019-02-15T06:48:59.808Z,84.10
2019-02-15T06:52:04.155Z,84.10
2019-02-15T06:55:08.465Z,84.10
2019-02-15T06:58:12.742Z,84.00
2019-02-15T07:01:38.839Z,83.90
2019-02-15T07:04:51.321Z,83.80
2019-02-15T07:07:56.139Z,83.90
2019-02-15T07:11:00.433Z,84.00
2019-02-15T07:14:04.908Z,84.00
2019-02-15T07:17:09.251Z,84.10
2019-02-15T07:20:13.584Z,84.00
2019-02-15T07:23:17.926Z,84.00
2019-02-15T07:26:22.303Z,84.10
2019-02-15T07:29:26.581Z,84.10
2019-02-15T07:32:30.879Z,85.10
2019-02-15T07:35:35.172Z,84.20
2019-02-15T07:38:39.655Z,84.20
2019-02-15T07:41:44.010Z,84.20
2019-02-15T07:44:48.388Z,84.20
2019-02-15T07:47:52.668Z,84.50
2019-02-15T07:50:57.044Z,84.40
2019-02-15T07:54:01.320Z,84.40
2019-02-15T07:57:05.693Z,84.40
2019-02-15T08:00:12.059Z,84.30
2019-02-15T08:03:16.420Z,84.30
2019-02-15T08:06:20.703Z,84.10
2019-02-15T08:09:25.226Z,84.10
2019-02-15T08:12:29.570Z,84.00
2019-02-15T08:15:36.311Z,84.20
2019-02-15T08:18:39.953Z,84.10
2019-02-15T08:21:44.347Z,84.00
2019-02-15T08:24:48.699Z,84.30
2019-02-15T08:27:53.082Z,83.90
2019-02-15T08:30:57.360Z,84.00
2019-02-15T08:34:01.747Z,83.80
2019-02-15T08:37:06.100Z,83.90
2019-02-15T08:40:10.786Z,83.70
2019-02-15T08:43:15.060Z,83.80
2019-02-15T08:46:19.361Z,83.70
2019-02-15T08:49:23.730Z,83.70
2019-02-15T08:52:28.033Z,83.70
2019-02-15T08:55:32.314Z,83.70
2019-02-15T08:58:36.612Z,83.70
2019-02-15T09:01:40.881Z,84.40
2019-02-15T09:04:45.231Z,83.40
2019-02-15T09:07:49.648Z,83.80
2019-02-15T09:10:54.192Z,83.60
2019-02-15T09:18:14.713Z,83.80
2019-02-15T09:21:19.088Z,84.00
2019-02-15T09:24:23.644Z,83.70
2019-02-15T09:27:51.047Z,83.50
2019-02-15T09:30:55.365Z,83.50
2019-02-15T09:33:59.736Z,83.60
2019-02-15T09:37:04.130Z,83.70
2019-02-15T09:40:09.360Z,83.40
2019-02-15T09:43:14.122Z,83.50
2019-02-15T09:46:20.238Z,83.60
2019-02-15T09:49:24.538Z,83.50
2019-02-15T09:52:28.845Z,83.40
2019-02-15T09:55:33.242Z,83.20
2019-02-15T09:58:37.533Z,83.10
2019-02-15T10:01:41.839Z,83.00
2019-02-15T10:04:46.153Z,82.80
2019-02-15T10:07:50.500Z,82.50
2019-02-15T10:10:54.829Z,82.50
2019-02-15T10:14:00.252Z,82.40
2019-02-15T10:17:04.601Z,82.40
2019-02-15T10:20:09.083Z,82.10
2019-02-15T10:23:14.039Z,83.00
2019-02-15T10:26:18.654Z,82.20
2019-02-15T10:29:23.034Z,82.10
2019-02-15T10:32:27.471Z,82.10
2019-02-15T10:35:31.774Z,82.00
2019-02-15T10:38:37.200Z,82.00
2019-02-15T10:41:41.664Z,81.90
2019-02-15T10:44:49.370Z,81.90
2019-02-15T10:47:55.628Z,81.80
2019-02-15T10:51:00.057Z,81.60
2019-02-15T10:54:04.471Z,81.70
2019-02-15T10:57:08.952Z,81.60
2019-02-15T11:00:17.871Z,81.30
2019-02-15T11:03:22.325Z,81.30
2019-02-15T11:06:26.789Z,81.00
2019-02-15T11:09:31.145Z,80.90
2019-02-15T11:12:35.564Z,80.30
2019-02-15T11:15:39.898Z,80.10
2019-02-15T11:18:44.232Z,79.90
2019-02-15T11:21:48.700Z,80.00
2019-02-15T11:24:53.008Z,79.60
2019-02-15T11:27:57.420Z,79.30
2019-02-15T11:31:01.689Z,79.00
2019-02-15T11:34:08.606Z,78.40
2019-02-15T11:37:12.922Z,78.30
2019-02-15T11:40:17.216Z,77.80
2019-02-15T11:43:21.572Z,77.60
2019-02-15T11:46:26.357Z,77.10
2019-02-15T11:49:31.276Z,76.80
2019-02-15T11:52:35.668Z,76.40
2019-02-15T11:55:39.953Z,76.10
2019-02-15T11:58:44.500Z,75.60
2019-02-15T12:01:48.913Z,74.60
2019-02-15T12:04:53.216Z,75.50
2019-02-15T12:07:57.573Z,74.60
2019-02-15T12:11:01.951Z,74.50
2019-02-15T12:14:08.592Z,74.30
2019-02-15T12:17:12.967Z,74.10
2019-02-15T12:20:17.253Z,74.10
2019-02-15T12:23:21.640Z,73.80
2019-02-15T12:26:25.918Z,72.50
2019-02-15T12:29:30.313Z,72.20
2019-02-15T12:32:34.588Z,72.10
2019-02-15T12:35:38.976Z,71.10
2019-02-15T12:38:43.354Z,71.20
2019-02-15T12:41:47.846Z,70.80
2019-02-15T12:44:52.286Z,70.50
2019-02-15T12:47:56.656Z,70.20
2019-02-15T12:51:00.977Z,69.70
2019-02-15T12:54:05.364Z,69.80
2019-02-15T12:57:09.835Z,70.10
2019-02-15T13:00:14.921Z,69.80
2019-02-15T13:03:19.375Z,69.80
2019-02-15T13:06:28.764Z,68.70
2019-02-15T13:09:29.901Z,68.50
2019-02-15T13:12:34.244Z,68.40
2019-02-15T13:15:38.600Z,68.30
2019-02-15T13:18:42.983Z,68.10
2019-02-15T13:21:47.269Z,67.80
2019-02-15T13:24:51.668Z,67.40
2019-02-15T13:27:55.945Z,67.20
2019-02-15T13:31:00.283Z,67.30
2019-02-15T13:34:04.679Z,67.00
2019-02-15T13:37:09.308Z,66.90
2019-02-15T13:40:13.682Z,66.40
2019-02-15T13:43:18.113Z,66.30
2019-02-15T13:46:22.525Z,66.40
2019-02-15T13:49:26.849Z,66.20
2019-02-15T13:52:31.243Z,66.30
2019-02-15T13:55:36.034Z,66.00
2019-02-15T13:58:40.402Z,66.10
2019-02-15T14:01:44.953Z,66.00
2019-02-15T14:04:49.224Z,61.40
2019-02-15T14:07:54.668Z,63.90
2019-02-15T14:10:59.028Z,64.60
2019-02-15T14:14:03.356Z,65.00
2019-02-15T14:17:07.767Z,65.20
2019-02-15T14:20:12.345Z,65.30
2019-02-15T14:23:16.627Z,65.40
2019-02-15T14:26:21.016Z,65.50
2019-02-15T14:29:25.298Z,65.60
2019-02-15T14:32:29.635Z,65.40
2019-02-15T14:35:34.047Z,65.40
2019-02-15T14:38:38.348Z,65.20
2019-02-15T14:41:42.700Z,65.20
2019-02-15T14:44:47.916Z,65.10
2019-02-15T14:47:55.006Z,65.20
2019-02-15T14:50:58.368Z,65.40
2019-02-15T14:54:03.098Z,65.20
2019-02-15T14:57:07.447Z,65.10
2019-02-15T15:00:12.678Z,65.30
2019-02-15T15:03:17.076Z,65.30
2019-02-15T15:06:21.378Z,65.40
2019-02-15T15:09:25.764Z,65.70
2019-02-15T15:12:30.046Z,65.60
2019-02-15T15:15:34.433Z,64.70
2019-02-15T15:18:38.746Z,65.00
2019-02-15T15:21:43.056Z,65.30
2019-02-15T15:24:47.336Z,65.00
2019-02-15T15:27:51.736Z,65.10
2019-02-15T15:30:56.187Z,65.10
2019-02-15T15:34:00.604Z,65.50
2019-02-15T15:37:05.036Z,65.70
2019-02-15T15:40:11.032Z,66.20
2019-02-15T15:43:15.322Z,66.60
2019-02-15T15:46:19.865Z,67.00
2019-02-15T15:49:24.234Z,67.40
2019-02-15T15:52:28.610Z,67.70
2019-02-15T15:55:32.989Z,67.80
2019-02-15T15:58:37.301Z,68.10
2019-02-15T16:01:41.673Z,68.60
2019-02-15T16:04:46.068Z,68.90
2019-02-15T16:07:50.461Z,69.10
2019-02-15T16:10:54.855Z,69.50
2019-02-15T16:13:59.230Z,69.70
2019-02-15T16:17:03.678Z,70.00
2019-02-15T16:20:09.085Z,70.10
2019-02-15T16:23:13.805Z,70.30
2019-02-15T16:26:18.186Z,70.60
2019-02-15T16:29:22.568Z,70.70
2019-02-15T16:32:26.836Z,70.90
2019-02-15T16:35:31.247Z,71.10
2019-02-15T16:38:35.677Z,71.40
2019-02-15T16:41:39.977Z,71.50
2019-02-15T16:44:44.308Z,71.70
2019-02-15T16:47:48.665Z,71.60
2019-02-15T16:50:53.016Z,71.70
2019-02-15T16:53:57.658Z,71.90
2019-02-15T16:57:02.073Z,72.10
2019-02-15T17:00:06.985Z,72.30
2019-02-15T17:03:11.437Z,72.60
2019-02-15T17:06:16.063Z,72.70
2019-02-15T17:09:20.432Z,72.80
2019-02-15T17:12:24.660Z,72.90
2019-02-15T17:15:29.016Z,73.20
2019-02-15T17:18:33.422Z,73.00
2019-02-15T17:21:37.904Z,73.00
2019-02-15T17:24:42.302Z,73.30
2019-02-15T17:27:46.754Z,73.20
2019-02-15T17:30:51.136Z,73.10
2019-02-15T17:33:55.440Z,73.30
2019-02-15T17:37:00.048Z,73.30
2019-02-15T17:40:04.891Z,73.20
2019-02-15T17:43:09.209Z,73.20
2019-02-15T17:46:13.497Z,73.10
2019-02-15T17:49:18.066Z,73.20
2019-02-15T17:52:22.429Z,73.30
2019-02-15T17:55:26.842Z,73.40
2019-02-15T17:58:31.227Z,73.30
2019-02-15T18:01:35.750Z,73.40
2019-02-15T18:04:40.365Z,73.50
2019-02-15T18:07:45.295Z,73.60
2019-02-15T18:10:50.024Z,73.60
2019-02-15T18:13:54.441Z,73.80
2019-02-15T18:16:59.152Z,73.70
2019-02-15T18:20:03.757Z,73.70
2019-02-15T18:23:08.135Z,73.70
2019-02-15T18:26:12.525Z,73.70
2019-02-15T18:29:16.974Z,73.70
2019-02-15T18:32:21.733Z,73.50
2019-02-15T18:35:26.845Z,73.40
2019-02-15T18:38:31.888Z,74.60
2019-02-15T18:41:36.488Z,73.70
2019-02-15T18:44:41.006Z,73.70
2019-02-15T18:47:46.099Z,73.70
2019-02-15T18:50:50.717Z,73.60
2019-02-15T18:53:55.131Z,73.50
2019-02-15T18:57:00.090Z,73.60
2019-02-15T19:00:05.274Z,73.50
2019-02-15T19:03:09.734Z,73.60
2019-02-15T19:06:14.756Z,73.40
2019-02-15T19:09:19.700Z,73.40
2019-02-15T19:12:25.528Z,73.40
2019-02-15T19:15:29.929Z,73.40
2019-02-15T19:18:34.975Z,73.30
2019-02-15T19:21:39.688Z,73.30
2019-02-15T19:24:43.994Z,73.30
2019-02-15T19:27:48.722Z,73.40
2019-02-15T19:30:54.248Z,73.30
2019-02-15T19:33:58.638Z,73.40
2019-02-15T19:37:03.245Z,73.40
2019-02-15T19:40:10.372Z,73.30
2019-02-15T19:43:15.090Z,73.40
2019-02-15T19:46:19.503Z,73.30
2019-02-15T19:49:38.194Z,73.30
2019-02-15T19:52:34.892Z,73.20
2019-02-15T19:55:41.670Z,73.20
2019-02-15T19:58:46.236Z,74.20
2019-02-15T20:01:51.016Z,73.30
2019-02-15T20:04:55.817Z,73.20
2019-02-15T20:08:01.705Z,73.20
2019-02-15T20:11:07.693Z,73.10
2019-02-15T20:14:13.154Z,73.10
2019-02-15T20:17:17.892Z,73.10
2019-02-15T20:20:22.263Z,73.10
2019-02-15T20:23:26.704Z,73.10
2019-02-15T20:26:31.076Z,73.10
2019-02-15T20:29:35.409Z,72.90
2019-02-15T20:32:39.774Z,72.80
2019-02-15T20:35:46.730Z,73.00
2019-02-15T20:38:51.122Z,72.90
2019-02-15T20:41:55.724Z,72.80
2019-02-15T20:45:00.339Z,72.90
2019-02-15T20:48:04.870Z,72.90
2019-02-15T20:51:09.224Z,72.80
2019-02-15T20:54:15.973Z,72.80
2019-02-15T20:57:33.660Z,72.80
2019-02-15T21:00:39.056Z,72.80
2019-02-15T21:03:43.712Z,72.90
2019-02-15T21:06:57.452Z,72.90
2019-02-15T21:10:02.315Z,72.80
2019-02-15T21:13:20.426Z,72.80
2019-02-15T21:16:23.625Z,72.80
2019-02-15T21:19:29.287Z,72.60
2019-02-15T21:22:39.686Z,72.60
2019-02-15T21:25:53.316Z,72.60
2019-02-15T21:29:02.013Z,72.50
2019-02-15T21:32:17.010Z,72.50
2019-02-15T21:35:26.687Z,72.60
2019-02-15T21:38:38.493Z,72.70
2019-02-15T21:41:49.731Z,72.60
2019-02-15T21:44:54.732Z,72.80
2019-02-15T21:47:59.288Z,72.80
2019-02-15T21:51:05.230Z,72.80
2019-02-15T21:54:09.954Z,73.00
2019-02-15T21:57:14.791Z,72.90
2019-02-15T22:00:20.258Z,72.90
2019-02-15T22:03:25.126Z,73.10
2019-02-15T22:06:31.248Z,73.10
2019-02-15T22:09:35.858Z,73.10
2019-02-15T22:12:43.173Z,73.10
2019-02-15T22:15:47.886Z,73.10
2019-02-15T22:18:52.915Z,73.20
2019-02-15T22:21:57.389Z,73.20
2019-02-15T22:25:01.920Z,73.30
2019-02-15T22:28:08.517Z,73.20
2019-02-15T22:31:13.706Z,73.40
2019-02-15T22:34:18.611Z,74.10
2019-02-15T22:37:23.192Z,73.20
2019-02-15T22:40:36.715Z,73.40
2019-02-15T22:43:45.918Z,73.40
2019-02-15T22:46:50.639Z,73.40
2019-02-15T22:49:55.235Z,73.60
2019-02-15T22:53:02.776Z,73.50
2019-02-15T22:56:07.095Z,74.40
2019-02-15T22:59:11.484Z,74.40
2019-02-15T23:02:16.082Z,74.30
2019-02-15T23:05:20.405Z,74.10
2019-02-15T23:08:26.322Z,75.60
2019-02-15T23:11:35.302Z,75.30
2019-02-15T23:14:45.438Z,75.70
2019-02-15T23:18:01.947Z,74.80
2019-02-15T23:21:17.890Z,74.50
2019-02-15T23:24:27.526Z,74.50
2019-02-15T23:27:47.332Z,74.30
2019-02-15T23:31:04.764Z,74.20
2019-02-15T23:34:08.369Z,74.30
2019-02-15T23:37:23.332Z,74.30
2019-02-15T23:40:40.391Z,74.40
2019-02-15T23:43:50.036Z,74.40
2019-02-15T23:46:54.499Z,74.30
2019-02-15T23:49:58.898Z,74.20
2019-02-15T23:53:03.265Z,74.30
2019-02-15T23:56:07.940Z,74.20
2019-02-15T23:59:12.311Z,74.30
